Stations météo

réclame
Mon MeteoGroup
Greifswalder Oie, Allemagne (10097): Température de l'air & dewpoint: 15.07.2019 19:00:00 - 21.07.2019 19:00:00 (CEST)Greifswalder Oie, Allemagne (10097): Température de l'air 5cm & Température de l'air -5cm: 15.07.2019 19:00:00 - 21.07.2019 19:00:00 (CEST)Greifswalder Oie, Allemagne (10097): Température de l'air -20cm & Température de l'air -100cm: 15.07.2019 19:00:00 - 21.07.2019 19:00:00 (CEST)Greifswalder Oie, Allemagne (10097): water temperature: 15.07.2019 19:00:00 - 21.07.2019 19:00:00 (CEST)Greifswalder Oie, Allemagne (10097): Vitesse du vent & gusts: 15.07.2019 19:00:00 - 21.07.2019 19:00:00 (CEST)Greifswalder Oie, Allemagne (10097): Direction du vent: 15.07.2019 19:00:00 - 21.07.2019 19:00:00 (CEST)Greifswalder Oie, Allemagne (10097): reduced air pressure: 15.07.2019 19:00:00 - 21.07.2019 19:00:00 (CEST)Greifswalder Oie, Allemagne (10097): Ensoleillement: 15.07.2019 19:00:00 - 21.07.2019 19:00:00 (CEST)Greifswalder Oie, Allemagne (10097): Quantités de précipitations: 15.07.2019 19:00:00 - 21.07.2019 19:00:00 (CEST)
Date & Time tt [°C] td [°C] tt 5cm [°C] tt -5cm [°C] tt -20cm [°C] tt -100cm [°C] tw [°C] ff [km/h] ff [knt] fx [km/h] fx [knt] dd ppp [hPa] sd [min] rr [mm]
21.07.2019 19:00:00 21,4 15,3 21,6 25,7 24,8 18,1 20,7 39 21 49 27 WNW 1018,1 59 0,0
21.07.2019 18:00:00 22,0 16,0 24,3 29,6 24,6 18,1 20,7 38 21 47 26 WNW 1017,8 60 0,0
21.07.2019 17:00:00 23,0 15,9 26,1 31,1 24,2 18,1 20,8 35 19 44 24 WNW 1017,5 60 0,0
21.07.2019 16:00:00 22,1 15,9 27,0 30,8 23,6 18,1 20,7 31 17 36 20 W 1017,2 57 0,0
21.07.2019 15:00:00 22,0 15,5 26,9 30,7 22,9 18,1 21,0 31 17 37 20 W 1017,0 58 0,0
21.07.2019 14:00:00 20,9 16,3 27,4 30,3 22,1 18,1 20,9 21 11 24 13 W 1016,6 60 0,0
21.07.2019 13:00:00 20,2 16,0 25,0 24,4 21,8 18,1 20,7 23 13 39 21 W 1016,2 12 0,0
21.07.2019 12:00:00 19,4 16,2 22,3 23,3 21,6 18,1 20,7 32 17 38 21 W 1015,8 4 0,0
21.07.2019 11:00:00 19,7 16,8 22,6 23,9 21,3 18,1 20,8 27 15 35 19 WSW 1015,2 21 0,0
21.07.2019 10:00:00 18,8 16,2 22,1 23,0 21,0 18,1 20,8 22 12 33 18 SW 1014,3 51 0,0
21.07.2019 09:00:00 19,2 16,5 21,2 21,6 20,9 18,1 20,5 22 12 29 16 WSW 1013,9 57 0,0
21.07.2019 08:00:00 18,6 16,3 19,2 19,8 21,0 18,1 20,3 23 12 27 15 WSW 1013,6 58 0,0
21.07.2019 07:00:00 17,5 16,7 17,3 18,7 21,2 18,1 20,3 15 8 22 12 SSW 1013,3 8 0,0
21.07.2019 06:00:00 18,0 16,9 17,4 18,8 21,5 18,1 20,0 19 10 23 12 SW 1012,9 0 0,0
21.07.2019 05:00:00 18,0 16,8 17,7 19,0 21,8 18,0 19,9 18 10 22 12 WSW 1012,5 0 0,1
21.07.2019 04:00:00 17,6 16,5 17,4 19,3 22,1 18,0 20,0 6 3 13 7 NNW 1012,2 0 0,1
21.07.2019 03:00:00 17,6 16,5 17,3 19,4 22,4 18,0 20,4 8 4 22 12 NNW 1012,3 0 2,6
21.07.2019 02:00:00 17,9 16,4 17,3 20,2 22,7 18,0 20,4 17 9 35 19 SW 1012,8 0 0,7
21.07.2019 01:00:00 18,9 16,3 17,9 21,1 23,0 18,0 20,0 22 12 37 20 WSW 1013,0 0 0,1
21.07.2019 00:00:00 20,8 15,2 20,1 21,7 23,4 18,0 20,1 23 12 29 16 W 1013,4 0 0,0
20.07.2019 23:00:00 19,9 16,0 19,1 22,1 23,7 18,0 20,3 13 7 26 14 NNW 1013,1 0 0,0
20.07.2019 22:00:00 21,3 14,7 20,7 22,9 24,1 18,0 20,2 22 12 55 30 WNW 1013,3 0 0,0
20.07.2019 21:00:00 20,6 15,3 20,4 23,6 24,5 18,0 20,2 28 15 45 25 E 1011,9 0 0,0
20.07.2019 20:00:00 20,8 15,3 21,2 25,2 24,8 18,0 20,4 29 16 42 23 E 1012,3 0 0,0
20.07.2019 19:00:00 21,2 15,0 22,6 27,3 24,9 18,0 20,4 29 15 39 21 E 1012,5 48 0,0
20.07.2019 18:00:00 21,3 15,7 24,9 29,9 24,9 18,0 20,3 25 14 37 20 E 1012,4 60 0,0
20.07.2019 17:00:00 21,5 15,7 26,3 31,0 24,8 18,0 20,4 26 14 35 19 E 1013,2 57 0,0
20.07.2019 16:00:00 21,2 15,7 25,2 31,6 24,5 18,0 20,5 25 13 32 17 E 1013,8 55 0,0
20.07.2019 15:00:00 21,7 16,1 27,9 32,5 24,0 18,0 20,3 22 12 30 16 E 1014,2 60 0,0
20.07.2019 14:00:00 21,8 16,2 29,5 34,2 23,2 18,0 20,5 21 11 29 15 E 1014,6 60 0,0
20.07.2019 13:00:00 21,5 17,1 28,9 31,8 22,5 18,0 20,6 19 10 26 14 E 1014,9 55 0,0
20.07.2019 12:00:00 21,7 16,5 28,1 30,6 21,7 18,0 20,6 15 8 20 11 E 1015,0 56 0,0
20.07.2019 11:00:00 21,3 15,9 27,5 28,5 21,0 18,0 20,4 9 5 15 8 ESE 1015,2 60 0,0
20.07.2019 10:00:00 21,1 16,0 23,9 25,0 20,5 18,0 20,1 6 4 10 6 SE 1015,2 60 0,0
20.07.2019 09:00:00 20,1 15,3 22,7 22,7 20,2 18,0 19,8 3 2 5 3 NNW 1015,0 60 0,0
20.07.2019 08:00:00 19,6 15,3 20,1 19,8 20,1 18,0 19,7 4 2 5 3 SSW 1015,0 60 0,0
20.07.2019 07:00:00 19,2 15,5 17,5 17,7 20,3 17,9 19,6 3 2 8 5 NW 1014,7 59 0,0
20.07.2019 06:00:00 16,4 15,0 11,6 16,4 20,7 17,9 19,6 8 5 12 6 NW 1014,8 8 0,0
20.07.2019 05:00:00 15,9 14,6 10,9 16,9 21,0 17,9 19,7 11 6 14 7 NW 1014,7 0 0,0
20.07.2019 04:00:00 16,7 15,1 12,7 17,8 21,3 17,9 19,8 9 5 17 9 NW 1014,7 0 0,0
20.07.2019 03:00:00 17,1 15,7 15,6 18,3 21,7 17,9 19,8 16 9 20 11 NW 1014,6 0 0,0
20.07.2019 02:00:00 17,0 16,0 12,6 18,5 22,1 17,9 19,9 11 6 14 8 NNW 1014,4 0 0,0
20.07.2019 01:00:00 17,6 16,0 13,3 19,5 22,4 17,9 20,0 6 4 8 4 NW 1014,3 0 0,0
20.07.2019 00:00:00 18,8 15,1 16,9 20,6 22,8 17,9 20,1 5 3 6 3 NNW 1014,2 0 0,0
19.07.2019 23:00:00 19,1 15,5 16,7 20,7 23,2 17,9 20,2 5 3 8 5 SE 1014,1 0 0,0
19.07.2019 22:00:00 18,3 14,4 14,0 21,0 23,7 17,9 20,5 7 4 8 5 ESE 1013,9 0 0,0
19.07.2019 21:00:00 18,8 14,2 16,2 22,9 24,0 17,9 20,8 1 1 4 2 N 1013,4 2 0,0
19.07.2019 20:00:00 20,3 14,6 20,0 25,2 24,3 17,9 20,7 3 2 11 6 SSW 1013,3 26 0,0
19.07.2019 19:00:00 20,4 15,5 23,0 27,2 24,3 17,9 20,8 7 4 13 7 ESE 1012,8 1 0,0
19.07.2019 18:00:00 20,8 15,3 24,7 29,8 24,2 17,9 21,2 8 5 13 7 ESE 1012,8 19 0,0
19.07.2019 17:00:00 21,3 15,3 26,5 29,4 24,1 17,9 20,8 9 5 16 9 ESE 1012,7 10 0,0
19.07.2019 16:00:00 21,5 13,2 26,1 30,3 23,8 17,9 20,2 14 8 24 13 E 1012,6 25 0,0
19.07.2019 15:00:00 20,9 15,6 26,1 30,1 23,4 17,8 19,6 17 9 27 14 E 1012,3 20 0,0
19.07.2019 14:00:00 21,5 15,7 28,8 28,7 23,1 17,8 19,6 19 11 28 15 E 1012,2 9 0,0
19.07.2019 13:00:00 20,1 15,4 24,2 29,7 22,5 17,8 19,7 19 10 25 14 E 1012,4 34 0,0
19.07.2019 12:00:00 20,6 15,6 28,3 30,1 21,8 17,8 19,7 17 9 23 12 E 1012,3 59 0,0
19.07.2019 11:00:00 20,4 15,2 26,7 27,9 21,2 17,8 19,5 14 7 18 10 E 1012,3 60 0,0
19.07.2019 10:00:00 20,7 15,3 24,7 24,6 20,8 17,8 19,6 11 6 18 10 ESE 1012,1 53 0,0
19.07.2019 09:00:00 20,2 15,4 22,5 21,3 20,8 17,8 19,2 11 6 19 10 E 1011,9 4 0,0
19.07.2019 08:00:00 18,9 14,5 19,4 20,2 20,8 17,8 19,2 14 7 19 11 ESE 1011,7 0 0,0
19.07.2019 07:00:00 18,7 14,2 18,5 19,5 21,0 17,8 19,2 11 6 19 10 ESE 1011,6 18 0,0
19.07.2019 06:00:00 18,4 13,9 17,2 18,7 21,2 17,8 19,2 14 7 20 11 SE 1011,7 0 0,0
19.07.2019 05:00:00 18,3 14,4 17,1 19,0 21,5 17,8 19,2 13 7 24 13 SE 1011,7 0 0,0
19.07.2019 04:00:00 18,5 14,7 17,6 19,3 21,7 17,7 19,2 13 7 28 15 SE 1012,1 0 0,0
19.07.2019 03:00:00 18,5 14,5 17,8 19,3 22,0 17,7 19,2 19 10 31 17 ESE 1012,2 0 0,0
19.07.2019 02:00:00 18,6 13,8 17,1 19,3 22,4 17,7 19,3 21 11 32 17 ESE 1012,4 0 0,0
19.07.2019 01:00:00 18,7 13,4 17,3 19,7 22,8 17,7 19,4 23 12 32 17 ESE 1012,5 0 0,0
19.07.2019 00:00:00 18,6 14,7 17,3 20,2 23,3 17,7 19,4 21 11 31 17 ESE 1012,4 0 0,0
18.07.2019 23:00:00 18,5 14,1 17,1 20,8 23,8 17,7 19,5 21 11 31 17 E 1012,4 0 0,0
18.07.2019 22:00:00 18,6 14,2 17,3 21,8 24,4 17,7 19,6 21 11 30 16 E 1012,6 0 0,0
18.07.2019 21:00:00 18,8 14,7 18,1 23,4 25,0 17,7 19,7 20 11 30 16 E 1012,4 48 0,0
18.07.2019 20:00:00 19,4 14,5 19,8 25,4 25,4 17,7 19,6 20 11 29 15 E 1012,5 60 0,0
18.07.2019 19:00:00 20,2 14,6 22,2 28,3 25,7 17,7 19,6 16 9 27 14 E 1012,5 60 0,0
18.07.2019 18:00:00 20,8 14,4 26,8 32,4 25,6 17,7 19,8 19 10 27 15 E 1012,6 60 0,0
18.07.2019 17:00:00 21,4 13,7 29,6 35,0 25,2 17,7 20,0 17 9 24 13 E 1012,9 60 0,0
18.07.2019 16:00:00 21,1 13,5 31,0 36,3 24,6 17,7 20,3 16 8 21 11 E 1013,3 60 0,0
18.07.2019 15:00:00 20,9 13,8 31,1 36,5 23,8 17,7 20,2 13 7 18 10 E 1013,5 60 0,0
18.07.2019 14:00:00 20,1 12,9 31,6 35,8 22,8 17,7 20,0 11 6 15 8 E 1013,6 60 0,0
18.07.2019 13:00:00 20,8 12,7 30,2 33,9 21,8 17,7 19,8 10 5 16 8 ESE 1013,7 60 0,0
18.07.2019 12:00:00 20,2 12,4 27,9 30,6 20,9 17,7 20,1 7 4 13 7 SE 1013,9 60 0,0
18.07.2019 11:00:00 19,5 12,2 25,7 27,7 20,1 17,7 19,5 6 4 10 6 SW 1013,9 60 0,0
18.07.2019 10:00:00 18,8 12,2 22,2 24,1 19,6 17,7 19,2 8 4 14 8 SSW 1013,7 60 0,0
18.07.2019 09:00:00 17,5 11,8 19,9 20,9 19,3 17,7 18,9 11 6 15 8 SW 1013,8 60 0,0
18.07.2019 08:00:00 16,9 12,8 18,1 18,6 19,2 17,7 18,7 13 7 18 10 SW 1013,6 60 0,0
18.07.2019 07:00:00 17,0 12,5 16,8 16,9 19,4 17,7 18,7 12 7 17 9 SW 1013,4 60 0,0
18.07.2019 06:00:00 16,1 12,0 14,0 15,9 19,7 17,7 18,7 14 8 16 9 SW 1013,4 34 0,0
18.07.2019 05:00:00 15,8 12,3 13,0 15,9 20,0 17,7 18,8 13 7 18 10 SW 1013,5 0 0,0
18.07.2019 04:00:00 15,8 12,6 13,1 16,2 20,3 17,7 18,8 14 7 16 9 WSW 1013,3 0 0,0
18.07.2019 03:00:00 15,9 13,0 13,0 16,4 20,7 17,7 19,0 11 6 15 8 SW 1013,5 0 0,0
18.07.2019 02:00:00 16,0 12,8 12,4 16,3 21,2 17,7 19,0 10 5 13 7 SSW 1013,8 0 0,0
18.07.2019 01:00:00 16,3 12,3 8,9 16,7 21,7 17,7 19,1 5 3 8 4 SSE 1014,0 0 0,0
18.07.2019 00:00:00 16,1 12,0 9,1 17,6 22,3 17,7 19,2 4 2 9 5 SSE 1013,8 0 0,0
17.07.2019 23:00:00 15,7 11,9 9,6 18,7 23,0 17,7 19,2 4 2 8 4 SE 1013,8 0 0,0
17.07.2019 22:00:00 16,0 11,9 12,1 20,5 23,6 17,7 19,3 6 3 11 6 ESE 1013,9 6 0,0
17.07.2019 21:00:00 16,5 11,7 15,5 22,5 24,1 17,7 19,3 8 4 14 7 E 1013,9 60 0,0
17.07.2019 20:00:00 17,5 11,3 18,4 24,5 24,5 17,7 19,2 10 5 16 9 E 1013,8 60 0,0
17.07.2019 19:00:00 17,5 11,8 19,9 27,5 24,7 17,7 19,2 10 5 15 8 E 1013,8 60 0,0
17.07.2019 18:00:00 18,7 11,4 26,9 31,6 24,6 17,7 19,1 7 4 18 10 ENE 1014,0 60 0,0
17.07.2019 17:00:00 18,6 11,7 28,0 33,7 24,2 17,7 18,9 14 7 20 11 NNE 1014,1 60 0,0
17.07.2019 16:00:00 18,6 12,3 27,7 34,0 23,6 17,7 18,8 16 9 26 14 NNE 1014,1 60 0,0
17.07.2019 15:00:00 19,7 11,7 30,9 35,9 22,7 17,7 18,7 14 8 21 11 N 1014,1 60 0,0
17.07.2019 14:00:00 20,1 12,3 31,1 34,5 21,7 17,7 18,5 13 7 21 12 NNE 1014,2 60 0,0
17.07.2019 13:00:00 20,1 12,5 28,1 32,3 20,6 17,8 18,5 12 7 20 11 N 1014,1 60 0,0
17.07.2019 12:00:00 20,5 13,2 26,7 28,8 19,7 17,8 18,3 11 6 19 10 N 1013,9 60 0,0
17.07.2019 11:00:00 19,3 12,7 26,2 26,0 19,0 17,8 18,3 12 7 21 11 N 1013,8 51 0,0
17.07.2019 10:00:00 19,4 12,6 21,5 21,5 18,6 17,8 18,2 15 8 22 12 N 1013,6 44 0,0
17.07.2019 09:00:00 17,5 14,0 18,2 18,9 18,5 17,8 18,2 19 10 25 14 NW 1013,4 48 0,0
17.07.2019 08:00:00 17,4 14,4 17,5 17,8 18,4 17,8 18,1 22 12 29 16 NW 1013,1 39 0,0
17.07.2019 07:00:00 16,4 14,2 16,2 16,8 18,5 17,8 18,1 27 15 32 18 NW 1013,0 58 0,0
17.07.2019 06:00:00 15,7 13,8 15,2 15,8 18,7 17,8 18,1 29 15 32 18 WNW 1012,9 26 0,0
17.07.2019 05:00:00 15,1 13,4 14,4 15,8 18,9 17,8 18,2 26 14 35 19 NW 1012,6 0 0,0
17.07.2019 04:00:00 15,3 13,0 14,4 16,0 19,1 17,8 18,3 30 16 37 20 NW 1012,5 0 0,0
17.07.2019 03:00:00 15,6 12,4 14,9 16,2 19,4 17,8 18,3 32 18 41 22 NW 1012,6 0 0,0
17.07.2019 02:00:00 15,9 12,2 15,2 16,5 19,7 17,8 18,4 34 19 41 22 NW 1012,5 0 0,0
17.07.2019 01:00:00 16,0 12,9 15,2 16,9 20,0 17,8 18,4 31 17 40 22 NW 1012,6 0 0,0
17.07.2019 00:00:00 16,6 13,5 15,8 17,4 20,3 17,8 18,5 34 18 42 23 WNW 1012,5 0 0,0
16.07.2019 23:00:00 17,0 13,7 16,2 18,0 20,6 17,8 18,6 35 19 43 23 WNW 1012,3 0 0,0
16.07.2019 22:00:00 17,3 13,4 16,6 18,7 20,9 17,8 18,6 36 20 42 23 WNW 1012,2 0 0,0
16.07.2019 21:00:00 17,7 13,1 16,9 19,8 21,2 17,9 18,7 33 18 42 23 WNW 1012,0 60 0,0
16.07.2019 20:00:00 18,5 13,0 18,4 21,1 21,4 17,9 18,8 36 19 41 22 WNW 1011,9 60 0,0
16.07.2019 19:00:00 18,7 13,2 19,0 22,7 21,5 17,9 18,8 36 19 45 24 WNW 1011,7 60 0,0
16.07.2019 18:00:00 18,5 12,1 21,4 25,9 21,2 17,9 18,8 35 19 42 23 W 1011,6 60 0,0
16.07.2019 17:00:00 18,4 12,4 20,4 24,2 21,1 17,9 18,8 34 18 42 23 WNW 1011,8 12 0,0
16.07.2019 16:00:00 17,4 12,3 18,9 23,3 20,9 17,9 18,8 36 20 48 26 WNW 1011,9 1 0,0
16.07.2019 15:00:00 17,6 12,0 21,4 25,0 20,5 17,9 18,8 35 19 44 24 W 1011,6 25 0,0
16.07.2019 14:00:00 16,9 12,0 20,1 25,0 20,2 17,9 18,7 41 22 48 26 W 1011,7 21 0,0
16.07.2019 13:00:00 16,5 13,2 20,4 22,3 20,0 17,9 18,6 39 21 53 29 W 1011,8 4 0,0
16.07.2019 12:00:00 15,8 13,4 17,4 22,0 19,8 17,9 18,5 44 24 50 27 W 1011,7 7 0,0
16.07.2019 11:00:00 17,0 13,2 19,3 22,4 19,5 17,9 18,5 33 18 42 23 W 1011,4 4 0,0
16.07.2019 10:00:00 17,2 13,2 19,5 21,5 19,2 17,9 18,4 32 17 39 21 WNW 1011,2 23 0,0
16.07.2019 09:00:00 17,5 12,1 18,3 19,5 19,1 17,9 18,3 29 15 40 22 NW 1011,2 6 0,0
16.07.2019 08:00:00 16,4 12,5 16,7 18,2 19,2 17,9 18,3 35 19 47 25 NW 1011,1 1 0,0
16.07.2019 07:00:00 16,0 12,6 16,1 17,5 19,3 17,9 18,3 39 21 50 27 NW 1010,9 6 0,0
16.07.2019 06:00:00 16,0 13,6 15,9 17,3 19,4 17,9 18,4 43 23 51 28 NW 1010,6 0 0,0
16.07.2019 05:00:00 16,3 14,3 16,0 17,3 19,6 18,0 18,2 40 22 52 28 WNW 1010,5 0 0,0
16.07.2019 04:00:00 16,0 13,6 15,9 17,4 19,7 18,0 18,0 41 22 50 27 W 1010,7 0 0,0
16.07.2019 03:00:00 16,0 13,1 15,9 17,6 19,9 18,0 18,0 42 23 52 28 W 1011,1 0 0,0
16.07.2019 02:00:00 16,0 12,7 16,0 17,8 20,1 18,0 18,1 39 21 49 27 W 1011,4 0 0,0
16.07.2019 01:00:00 15,7 11,9 15,7 18,0 20,3 18,0 18,1 39 21 51 27 W 1011,8 0 0,0
16.07.2019 00:00:00 16,1 11,7 16,0 18,3 20,5 18,0 18,3 40 22 51 28 WSW 1012,0 0 0,0
15.07.2019 23:00:00 16,4 11,0 16,3 18,5 20,8 18,0 18,6 39 21 47 25 W 1012,5 0 0,0
15.07.2019 22:00:00 16,5 10,4 16,3 19,0 21,0 18,0 18,7 35 19 49 27 W 1012,7 0 0,0
15.07.2019 21:00:00 16,9 10,5 16,8 19,7 21,3 18,0 18,8 41 22 49 27 W 1012,8 0 0,0
15.07.2019 20:00:00 17,1 10,5 17,5 20,9 21,4 18,0 18,9 36 19 45 24 W 1012,9 0 0,0
15.07.2019 19:00:00 17,2 10,4 18,1 22,3 21,4 18,0 18,9 29 16 39 21 W 1013,2 9 0,0

tt = Température de l'air
td = dewpoint
tt 5cm = Température de l'air 5cm
tt -5cm = Température de l'air -5cm
tt -20cm = Température de l'air -20cm
tt -100cm = Température de l'air -100cm
tw = water temperature
ff = Vitesse du vent
fx = gusts
dd = Direction du vent
ppp = reduced air pressure
sd = Ensoleillement
rr = Quantités de précipitations

stations d'obs. à proximité